AREA preflight bulletin
Updated "live" 22 Aug 2019, 04:33

back to the map




METAR og TAF


ILULISSAT
  AKTUEL BGJN 220420Z AUTO 16006KT 9999NDV BKN095/// 06/02 Q1012=
  TAF 9 timer BGJN 211722Z 2118/2122 VRB03KT 9999 FEW030 BKN090 TEMPO 2118/2122 BKN030=

AASIAAT
  AKTUEL BGAA 220420Z AUTO 22006KT 9999NDV SCT009/// 06/06 Q1012=
  TAF 9 timer BGAA 211459Z 2115/2121 26005KT 9999 FEW006 SCT020 TEMPO 2115/2121 -SHRA BKN004=

UUMMANNAQ/QAARSUT
  AKTUEL BGUQ 220350Z AUTO 18002KT 9999NDV SCT081/// BKN120/// 06/01 Q1012=
  TAF 9 timer BGUQ 211459Z 2115/2121 VRB05KT 9999 FEW020 SCT100 PROB40 2115/2121 BKN030=

NUUK
  AKTUEL BGGH 220420Z AUTO 35003KT 9999NDV SCT006/// BKN021/// OVC025/// 06/05 Q1015=
  TAF 9 timer BGGH 220024Z 2200/2201 CNL=

KANGERLUSSUAQ
  AKTUEL BGSF 220420Z AUTO 26009KT 9999NDV SCT010/// OVC030/// 06/05 Q1013=
  TAF 24 timer BGSF 212257Z 2200/2306 26008KT 9999 BKN040 TEMPO 2200/2213 -SHRA FEW012 BKN020 TEMPO 2213/2224 -SHRA BKN025 TEMPO 2300/2306 BKN030=

QEQERTARSUAQ
  AKTUEL BGGN 220350Z AUTO 07004KT 340V120 //// ///////// 06/02 Q1012=

QASIGIANNGUIT
  AKTUEL


SIGMETS:

Ingen SIGMET fundet:

NOTAM/SNOWTAM for operationel use has to be confirmed with the
nearest AIS Briefing Office prior to a flight.

ICAO
BGJN (ILULISSAT)

FIR
BGGL

Notam_id:
BGB0496/19

valid from:
1907100834

E) EVERY SECOND APCH LIGHT RWY 07/25 OUT OF SERVICE.

valid to:
1909301900




ICAO
BGAA (AASIAAT)

FIR
BGGL

Notam_id:
BGA0269/17

valid from:
1706081136

D) DAILY 1100-1115 2300-2315


E) ASCENT OR WEATHER BALLOON TAKES PLACE TWICE A DAY 1100-1115 AND 2300-2315. POSN 684201N0525105W LOCATED WEST OF THE AIRPORT AT A DISTANCE OF APPROX 3 KM. THE BALLOON CAN RISE TO A HEIGHT OF UP TO 35 KM. REF AIP GREENLAND AD 2 - BGAA - 4. F) SFC G) FL999

valid to:
PERM




ICAO
BGUQ (UUMMANNAQ/QAARSUT)

FIR
BGGL

Notam_id:
BGB0530/19

valid from:
1908011257

E) THR ID LIGHTS RWY 33 U/S.

valid to:
1908301800EST


Replacing:
BGB0471/19

ICAO
BGGL (SONDRESTROM FIR)

FIR
BGGL

Notam_id:
BGA0423/19

valid from:
1908232230

E) DUE TO DEBRIS FROM RUSSIAN ROCKET TEST, TEMPORARY DANGER AREA IS ESTABLISHED IN BGGL FIR WITHIN THE FOLLOWING LATERAL LIMITS: 8730N03200E 8707N01158E 8706N00031E 8843N03230E 8730N03200E. F) SFC G) FL195

valid to:
1908240530




ICAO
BGGL (SONDRESTROM FIR)

FIR
BGGL

Notam_id:
BGA0424/19

valid from:
1908242230

E) DUE TO DEBRIS FROM RUSSIAN ROCKET TEST, TEMPORARY DANGER AREA IS ESTABLISHED IN BGGL FIR WITHIN THE FOLLOWING LATERAL LIMITS: 8730N03200E 8707N01158E 8706N00031E 8843N03230E 8730N03200E. F) SFC G) FL195

valid to:
1908250530




ICAO
BGGL (SONDRESTROM FIR)

FIR
BGGL

Notam_id:
BGA0396/19

valid from:
1908010511

E) CHECKLIST YEAR=2017 0269 YEAR=2018 0199 YEAR=2019 0314 0316 0323 0363 0369 0371 0375 0377 0379 0381 0383 0385 0391 0392 0393 LATEST PUBLICATIONS AIP AIRAC AMDT IFR 006/2019 EFFECTIVE DATE 12 SEP 19 AIP AMDT IFR 003/2018 EFFECTIVE DATE 15 MAR 18 AIP SUP IFR 001/2019 EFFECTIVE DATE 06 JUN 19 AIC IFR A001/2019 EFFECTIVE DATE 17 JAN 19

valid to:
1909010511EST


Replacing:
BGA0395/19

ICAO
BGGL (SONDRESTROM FIR)

FIR
BGGL

Notam_id:
BGB0528/19

valid from:
1908010512

E) CHECKLIST YEAR=2017 0740 YEAR=2018 0806 YEAR=2019 0145 0207 0358 0416 0446 0448 0471 0488 0491 0496 0499 0503 0504 0506 0508 0524 0526 LATEST PUBLICATIONS AIP AIRAC AMDT IFR 006/2019 EFFECTIVE DATE 12 SEP 19 AIP AMDT IFR 003/2018 EFFECTIVE DATE 15 MAR 18 AIP SUP IFR 001/2019 EFFECTIVE DATE 06 JUN 19 AIC IFR A001/2019 EFFECTIVE DATE 17 JAN 19

valid to:
1909010512EST


Replacing:
BGB0527/19

ICAO
BGGL (SONDRESTROM FIR)

FIR
BGGL

Notam_id:
BGC0065/19

valid from:
1908010513

E) CHECKLIST YEAR=2018 0079 0081 YEAR=2019 0014 0015 0016 0017 0045 0046 0047 0049 0050 0062 0063 LATEST PUBLICATIONS AIP AIRAC AMDT IFR 006/2019 EFFECTIVE DATE 12 SEP 19 AIP AMDT IFR 003/2018 EFFECTIVE DATE 15 MAR 18 AIP SUP IFR 001/2019 EFFECTIVE DATE 06 JUN 19 AIC IFR A001/2019 EFFECTIVE DATE 17 JAN 19

valid to:
1909010513EST


Replacing:
BGC0064/19

ICAO
BGGL (SONDRESTROM FIR)

FIR
BGGL

Notam_id:
BGA0425/19

valid from:
1908260930

E) DUE TO DEBRIS FROM RUSSIAN ROCKET TEST, TEMPORARY DANGER AREA IS ESTABLISHED IN BGGL FIR WITHIN THE FOLLOWING LATERAL LIMITS: 8730N03200E 8707N01158E 8706N00031E 8843N03230E 8730N03200E. F) SFC G) FL195

valid to:
1908261730




ICAO
BGGL (SONDRESTROM FIR)

FIR
BGGL

Notam_id:
BGA0416/19

valid from:
1908141100

E) DIRECTION OF CRUISING LEVELS FOR RNP-ROUTE UT596 HAS BEEN CHANGED FROM EVEN TO ODD.

valid to:
1911062359




ICAO
BGGL (SONDRESTROM FIR)

FIR
BGGL

Notam_id:
BGA0363/19

valid from:
1909120000

E) TRIGGER NOTAM - PERM AIP AIRAC AMDT 06/19 WEF 12 SEP 2019. REF ENR 4.5: ABN KANGERSUATSIAQ ADDED AND CHANGES IN LOCATION/REMARKS AT SEVERAL ABN.

valid to:
1909252359




ICAO
BGGL (SONDRESTROM FIR)

FIR
BGGL

Notam_id:
BGA0199/18

valid from:
1805310935

E) GREENLAND AND ADJACENT WATERS ARE CONSIDERED HOSTILE AREAS BY THE CIVIL AVIATION AUTHORITY (TBST). THREE MAJOR REASONS CONTRIBUTE TO DEFINING THE AREA AS HOSTILE: A SAFE FORCED LANDING CANNOT BE ACCOMPLISHED BECAUSE THE SURFACE IS INADEQUATE. THE HELICOPTER OCCUPANTS CANNOT BE ADEQUATELY PROTECTED FROM THE ELEMENTS. SEARCH AND RESCUE RESPONSE/CAPABILITY ARE NOT PROVIDED CONSISTENT WITH ANTICIPATED EXPOSURE.

valid to:
PERM




ICAO
BGGH (NUUK)

FIR
BGGL

Notam_id:
BGB0526/19

valid from:
1907311807

E) BGGH AFIS FREQ 119.100 MHZ NO COVERAGE IN SECTOR BETWEEN 060 DEG MAG AND 210 DEG MAG BELOW FL100.

valid to:
1908311900


Replacing:
BGB0070/19

ICAO
BGGH (NUUK)

FIR
BGGL

Notam_id:
BGB0499/19

valid from:
1907111317

E) ERROR IN CHART FOR RNAV (GNSS) APPROACH RWY 23. WITH REF AIP GREENLAND AD 2-BGGH RNAV (GNSS) RWY 23-1. NEW OCA(H) LNAV/VNAV CLIMB 2.5 PERCENT CAT A TO READ 1310 (1029) INSTEAD OF 1230. NEW OCA(H) LNAV/VNAV CLIMB 2.5 PERCENT CAT B TO READ 1340 (1059) INSTEAD OF 1250. NEW OCA(H) LNAV/VNAV CLIMB 5.0 PERCENT CAT A TO READ 1300 (1019) INSTEAD OF 1070. NEW OCA(H) LNAV/VNAV CLIMB 5.0 PERCENT CAT B TO READ 1320 (1039) INSTEAD OF 1110. NEW OCA(H) LNAV CLIMB 5.0 PERCENT CAT A TO READ 1150 (869) IN-STEAD OF 1130. NEW OCA(H) LNAV CLIMB 5.0 PERCENT CAT B TO READ 1240 (959) INSTEAD OF 1230.

valid to:
1909112359


Replacing:
BGB0930/17

ICAO
BGGH (NUUK)

FIR
BGGL

Notam_id:
BGB0529/19

valid from:
1908011154

E) STAND 3 AND 4 CAN NOT RUN 2 HEATERS SIMULTANEOUSLY WHILE RUNNING 2 GPU'S.

valid to:
2004301200EST


Replacing:
BGB0446/19

ICAO
BGGH (NUUK)

FIR
BGGL

Notam_id:
BGB0358/19

valid from:
1905151005

E) FIREFIGHTING AND RESCUE LIMITED TO: CAT5 PPR 3 HR BEFORE LANDING OR DEPARTURE FOR ALL TRAFFIC OVER 10 TONS AND ABOVE 19 PASSENGERS, EXCEPT SCHEDULED TRAFFIC.

valid to:
PERM


Replacing:
BGB0350/19

ICAO
BGGH (NUUK)

FIR
BGGL

Notam_id:
BGB0503/19

valid from:
1909120000

E) TRIGGER NOTAM - PERM AIP AIRAC AMDT 06/19 WEF 12 SEP 2019. IAC RNAV (GNSS) RWY 23 RENAMED TO RNP RWY 23 AND PROCEDURE UPDATED (E.G. VARIATION CHANGED, WAYPOINTS GHT23 AND GHM23 WITHDRAWN, NEW WAYPOINTS ADDED.).

valid to:
1909252359




ICAO
BGGH (NUUK)

FIR
BGGL

Notam_id:
BGB0448/19

valid from:
1908150000

E) TRIGGER NOTAM - PERM AIP AIRAC AMDT 05/19 WEF 15 AUG 2019. CHANGES TO RESCUE AND FIRE FIGHTING SERVICE.

valid to:
1908282359




ICAO
BGSF (KANGERLUSSUAQ)

FIR
BGGL

Notam_id:
BGA0314/19

valid from:
1908150000

E) TRIGGER NOTAM - PERM AIP AIRAC AMDT 05/19 WEF 15 AUG 2019. NEW REMARK CONCERNING PCN.

valid to:
1908282359





Copyright Naviair   2003-2016